Sparta, WI (54656)

7:19 PM CDT on June 28, 2017 (GMT -0500)
Sparta-Fort McCoy | | Change Station
Active Advisory: Tornado Watch Active Notice: Public Information Statement

Elev 837 ft 43.96 °N, 90.74 °W | Updated 24 minutes ago

Partly Cloudy
Partly Cloudy
68 °F
Feels Like 68 °F
N
4
Wind Variable Wind from SW

Today
High -- | Low -- °F
--% Chance of Precip.
Yesterday
High -- | Low -- °F
Precip. -- in
Pressure 29.61 in
Visibility 10.0 miles
Clouds Clear
Dew Point 65 °F
Humidity 91%
Rainfall 1.02 in
Snow Depth Not available.
5:23 AM 8:49 PM
Waxing Crescent, 30% visible
METAR KCMY 282355Z AUTO 22003KT 10SM CLR 20/18 A2961 RMK AO2 LTG DSNT N 60010 T01990184 10211 20181
Pressure 29.61 in
Visibility 10.0 miles
Clouds Clear
Dew Point 65 °F
Humidity 91%
Rainfall 1.02 in
Snow Depth Not available.
5:23 AM 8:49 PM
Waxing Crescent, 30% visible
METAR KCMY 282355Z AUTO 22003KT 10SM CLR 20/18 A2961 RMK AO2 LTG DSNT N 60010 T01990184 10211 20181

Get Your Daily Forecast Email!

Thanks for signing up!

Be on the lookout for a verification email in your inbox.

You'll start receiving severe weather alerts in your inbox..

×

10-Day Weather Forecast

Almanac

Astronomy

Jun. 28, 2017 Rise Set
Actual Time
Civil Twilight
Nautical Twilight
Astronomical Twilight
Moon
Length of Visible Light
Length of Day
Tomorrow will be .
, % of the Moon is Illuminated

Today's Extremes

State Highs State Lows

Community

WunderPhotos

Category 6

Welcome to Category 6. This is the collective home for Weather Underground's featured writeups by Dr. Jeff Masters (right), Bob Henson (left), Chris Burt, and other regular contributors.

Nearby

Air Quality

  Air Quality AQ Index Pollutant
Not available.

Snow Depth

Station Depth Elevation

Earthquake Activity

City Distance Mag. Time & Date
Minimum magnitude displayed is 2.5.

Coastal Water Temperatures

Place Temperature

Stations

Nearby Weather Stations

Station Location Temp. Windchill Dew Point Humidity Wind Precip. Elev Updated Type
                   

Watches & Warnings

Tornado Watch
Issued: 7:03 PM CDT Jun. 28, 2017 – National Weather Service

Tornado Watch 376 remains in effect until 1000 PM CDT for the
following locations

WI
. Wisconsin counties included are

Buffalo Chippewa Clark
Eau Claire Jackson La Crosse
Monroe Pepin Rusk
Taylor Trempealeau Vernon